sensor_id;sensor_type;location;lat;lon;timestamp;temperature;humidity
484;DHT22;228;48.922;12.198;2023-07-02T04:02:56;19.00;77.50
484;DHT22;228;48.922;12.198;2023-07-02T04:05:22;18.80;78.50
484;DHT22;228;48.922;12.198;2023-07-02T04:07:48;18.80;78.40
484;DHT22;228;48.922;12.198;2023-07-02T04:10:14;18.80;78.50
484;DHT22;228;48.922;12.198;2023-07-02T04:12:40;19.20;77.90
484;DHT22;228;48.922;12.198;2023-07-02T04:15:07;19.20;77.80
484;DHT22;228;48.922;12.198;2023-07-02T04:17:33;18.90;79.00
484;DHT22;228;48.922;12.198;2023-07-02T04:20:01;19.10;78.60
484;DHT22;228;48.922;12.198;2023-07-02T04:22:29;19.30;78.10
484;DHT22;228;48.922;12.198;2023-07-02T04:24:56;19.20;78.40
484;DHT22;228;48.922;12.198;2023-07-02T04:27:22;19.00;79.20
484;DHT22;228;48.922;12.198;2023-07-02T04:29:48;19.00;79.70
484;DHT22;228;48.922;12.198;2023-07-02T04:32:14;18.70;80.60
484;DHT22;228;48.922;12.198;2023-07-02T04:34:40;18.80;81.60
484;DHT22;228;48.922;12.198;2023-07-02T04:37:08;18.80;81.80
484;DHT22;228;48.922;12.198;2023-07-02T04:39:34;18.90;81.20
484;DHT22;228;48.922;12.198;2023-07-02T04:42:00;19.00;80.10
484;DHT22;228;48.922;12.198;2023-07-02T04:44:26;18.90;80.50
484;DHT22;228;48.922;12.198;2023-07-02T04:46:59;19.20;80.30
484;DHT22;228;48.922;12.198;2023-07-02T04:49:26;19.20;79.10
484;DHT22;228;48.922;12.198;2023-07-02T04:51:53;19.10;78.80
484;DHT22;228;48.922;12.198;2023-07-02T04:54:23;19.20;78.00
484;DHT22;228;48.922;12.198;2023-07-02T04:56:48;19.10;78.00
484;DHT22;228;48.922;12.198;2023-07-02T04:59:15;18.80;78.90
484;DHT22;228;48.922;12.198;2023-07-02T05:01:41;19.20;79.20
484;DHT22;228;48.922;12.198;2023-07-02T05:04:09;19.30;77.00
484;DHT22;228;48.922;12.198;2023-07-02T05:06:39;19.50;76.70
484;DHT22;228;48.922;12.198;2023-07-02T05:09:05;19.70;75.90
484;DHT22;228;48.922;12.198;2023-07-02T05:11:31;19.60;75.10
484;DHT22;228;48.922;12.198;2023-07-02T05:13:57;19.40;75.60
484;DHT22;228;48.922;12.198;2023-07-02T05:16:23;19.50;76.00
484;DHT22;228;48.922;12.198;2023-07-02T05:18:49;19.50;75.50
484;DHT22;228;48.922;12.198;2023-07-02T05:21:18;19.60;75.30
484;DHT22;228;48.922;12.198;2023-07-02T05:23:44;19.60;74.00
484;DHT22;228;48.922;12.198;2023-07-02T05:26:10;19.40;75.40
484;DHT22;228;48.922;12.198;2023-07-02T05:28:36;19.60;76.40
484;DHT22;228;48.922;12.198;2023-07-02T05:31:02;20.00;75.80
484;DHT22;228;48.922;12.198;2023-07-02T05:33:28;20.30;72.70
484;DHT22;228;48.922;12.198;2023-07-02T05:35:56;20.30;72.50
484;DHT22;228;48.922;12.198;2023-07-02T05:38:22;20.30;72.60
484;DHT22;228;48.922;12.198;2023-07-02T05:40:50;20.40;73.00
484;DHT22;228;48.922;12.198;2023-07-02T05:43:16;20.60;71.00
484;DHT22;228;48.922;12.198;2023-07-02T05:45:42;20.40;71.10
484;DHT22;228;48.922;12.198;2023-07-02T05:48:08;20.00;71.70
484;DHT22;228;48.922;12.198;2023-07-02T05:50:34;20.00;72.00
484;DHT22;228;48.922;12.198;2023-07-02T05:53:00;19.90;73.10
484;DHT22;228;48.922;12.198;2023-07-02T05:55:26;20.20;73.60
484;DHT22;228;48.922;12.198;2023-07-02T05:57:52;20.40;71.40
484;DHT22;228;48.922;12.198;2023-07-02T06:00:18;20.20;71.90
484;DHT22;228;48.922;12.198;2023-07-02T06:02:46;20.60;71.00
484;DHT22;228;48.922;12.198;2023-07-02T06:05:13;20.50;70.30
484;DHT22;228;48.922;12.198;2023-07-02T06:07:39;20.70;69.60
484;DHT22;228;48.922;12.198;2023-07-02T06:10:05;20.60;67.60
484;DHT22;228;48.922;12.198;2023-07-02T06:12:31;20.70;68.40
484;DHT22;228;48.922;12.198;2023-07-02T06:14:57;20.60;66.50
484;DHT22;228;48.922;12.198;2023-07-02T06:17:24;20.50;66.80
484;DHT22;228;48.922;12.198;2023-07-02T06:19:50;20.80;66.70
484;DHT22;228;48.922;12.198;2023-07-02T06:22:16;21.20;63.90
484;DHT22;228;48.922;12.198;2023-07-02T06:24:42;21.00;63.80
484;DHT22;228;48.922;12.198;2023-07-02T06:27:08;20.90;63.00
484;DHT22;228;48.922;12.198;2023-07-02T06:29:34;20.70;63.40
484;DHT22;228;48.922;12.198;2023-07-02T06:32:00;20.60;64.30
484;DHT22;228;48.922;12.198;2023-07-02T06:34:26;20.40;64.30
484;DHT22;228;48.922;12.198;2023-07-02T06:36:52;20.00;63.60
484;DHT22;228;48.922;12.198;2023-07-02T06:39:18;20.00;64.10
484;DHT22;228;48.922;12.198;2023-07-02T06:41:44;20.10;64.70
484;DHT22;228;48.922;12.198;2023-07-02T06:44:10;20.30;65.00
484;DHT22;228;48.922;12.198;2023-07-02T06:46:36;20.30;64.30
484;DHT22;228;48.922;12.198;2023-07-02T06:49:02;20.20;64.60
484;DHT22;228;48.922;12.198;2023-07-02T06:51:28;20.20;64.60
484;DHT22;228;48.922;12.198;2023-07-02T06:53:55;20.20;64.00
484;DHT22;228;48.922;12.198;2023-07-02T06:56:21;20.50;63.90
484;DHT22;228;48.922;12.198;2023-07-02T06:58:47;20.50;62.90
484;DHT22;228;48.922;12.198;2023-07-02T07:01:13;20.20;63.00
484;DHT22;228;48.922;12.198;2023-07-02T07:03:39;20.20;63.70
484;DHT22;228;48.922;12.198;2023-07-02T07:06:05;20.00;64.60
484;DHT22;228;48.922;12.198;2023-07-02T07:08:31;20.00;64.40
484;DHT22;228;48.922;12.198;2023-07-02T07:10:57;20.00;65.00
484;DHT22;228;48.922;12.198;2023-07-02T07:13:22;20.10;63.80
484;DHT22;228;48.922;12.198;2023-07-02T07:15:49;20.40;62.80
484;DHT22;228;48.922;12.198;2023-07-02T07:18:15;20.70;62.80
484;DHT22;228;48.922;12.198;2023-07-02T07:20:41;21.00;62.90
484;DHT22;228;48.922;12.198;2023-07-02T07:23:08;21.00;62.60
484;DHT22;228;48.922;12.198;2023-07-02T07:25:34;21.10;63.00
484;DHT22;228;48.922;12.198;2023-07-02T07:28:01;20.90;63.40
484;DHT22;228;48.922;12.198;2023-07-02T07:30:27;20.60;63.40
484;DHT22;228;48.922;12.198;2023-07-02T07:32:53;20.50;62.70
484;DHT22;228;48.922;12.198;2023-07-02T07:35:23;19.70;63.50
484;DHT22;228;48.922;12.198;2023-07-02T07:37:49;20.00;63.00
484;DHT22;228;48.922;12.198;2023-07-02T07:40:15;20.00;64.10
484;DHT22;228;48.922;12.198;2023-07-02T07:42:42;20.50;63.60
484;DHT22;228;48.922;12.198;2023-07-02T07:45:10;20.40;61.50
484;DHT22;228;48.922;12.198;2023-07-02T07:47:37;20.30;60.80
484;DHT22;228;48.922;12.198;2023-07-02T07:50:03;20.40;60.10
484;DHT22;228;48.922;12.198;2023-07-02T07:52:39;20.40;59.20
484;DHT22;228;48.922;12.198;2023-07-02T07:55:06;20.60;59.10
484;DHT22;228;48.922;12.198;2023-07-02T07:57:36;20.70;58.40
484;DHT22;228;48.922;12.198;2023-07-02T08:00:03;20.80;57.20
484;DHT22;228;48.922;12.198;2023-07-02T08:02:43;21.30;57.40
484;DHT22;228;48.922;12.198;2023-07-02T08:05:10;21.40;54.80
484;DHT22;228;48.922;12.198;2023-07-02T08:07:36;21.40;55.20
484;DHT22;228;48.922;12.198;2023-07-02T08:10:02;21.30;54.60
484;DHT22;228;48.922;12.198;2023-07-02T08:12:29;21.00;55.10
484;DHT22;228;48.922;12.198;2023-07-02T08:14:56;21.10;55.80
484;DHT22;228;48.922;12.198;2023-07-02T08:17:22;21.60;55.30
484;DHT22;228;48.922;12.198;2023-07-02T08:19:48;22.00;54.20
484;DHT22;228;48.922;12.198;2023-07-02T08:22:14;22.20;54.20
484;DHT22;228;48.922;12.198;2023-07-02T08:24:40;21.90;53.20
484;DHT22;228;48.922;12.198;2023-07-02T08:27:06;22.10;53.80
484;DHT22;228;48.922;12.198;2023-07-02T08:29:32;22.40;54.50
484;DHT22;228;48.922;12.198;2023-07-02T08:31:58;22.60;54.20
484;DHT22;228;48.922;12.198;2023-07-02T08:34:24;22.70;54.70
484;DHT22;228;48.922;12.198;2023-07-02T08:36:50;23.00;52.50
484;DHT22;228;48.922;12.198;2023-07-02T08:39:19;22.70;53.30
484;DHT22;228;48.922;12.198;2023-07-02T08:41:46;22.70;54.20
484;DHT22;228;48.922;12.198;2023-07-02T08:44:14;22.60;54.10
484;DHT22;228;48.922;12.198;2023-07-02T08:46:42;22.70;54.70
484;DHT22;228;48.922;12.198;2023-07-02T08:49:08;22.70;55.00
484;DHT22;228;48.922;12.198;2023-07-02T08:51:35;22.90;55.50
484;DHT22;228;48.922;12.198;2023-07-02T08:54:02;22.70;55.20
484;DHT22;228;48.922;12.198;2023-07-02T08:56:29;22.70;55.70
484;DHT22;228;48.922;12.198;2023-07-02T08:58:56;22.70;54.90
484;DHT22;228;48.922;12.198;2023-07-02T09:01:22;23.00;55.00
484;DHT22;228;48.922;12.198;2023-07-02T09:03:49;23.20;52.80
484;DHT22;228;48.922;12.198;2023-07-02T09:06:17;23.20;53.40
484;DHT22;228;48.922;12.198;2023-07-02T09:08:44;23.00;52.90
484;DHT22;228;48.922;12.198;2023-07-02T09:11:12;23.50;52.00
484;DHT22;228;48.922;12.198;2023-07-02T09:16:30;23.60;49.70
484;DHT22;228;48.922;12.198;2023-07-02T09:24:20;24.30;48.30
484;DHT22;228;48.922;12.198;2023-07-02T09:26:50;24.00;48.40
484;DHT22;228;48.922;12.198;2023-07-02T09:29:22;24.20;48.60
484;DHT22;228;48.922;12.198;2023-07-02T09:31:50;24.20;47.40
484;DHT22;228;48.922;12.198;2023-07-02T09:34:16;24.20;47.40
484;DHT22;228;48.922;12.198;2023-07-02T09:36:43;24.00;47.80
484;DHT22;228;48.922;12.198;2023-07-02T09:39:13;23.70;47.70
484;DHT22;228;48.922;12.198;2023-07-02T09:41:41;23.50;48.00
484;DHT22;228;48.922;12.198;2023-07-02T09:44:09;23.80;47.30
484;DHT22;228;48.922;12.198;2023-07-02T09:46:48;24.00;47.80
484;DHT22;228;48.922;12.198;2023-07-02T09:49:17;23.50;47.60
484;DHT22;228;48.922;12.198;2023-07-02T09:51:46;23.20;48.80
484;DHT22;228;48.922;12.198;2023-07-02T09:54:12;23.60;48.90
484;DHT22;228;48.922;12.198;2023-07-02T09:56:40;24.30;47.60
484;DHT22;228;48.922;12.198;2023-07-02T09:59:06;24.10;46.20
484;DHT22;228;48.922;12.198;2023-07-02T10:01:32;24.00;47.40
484;DHT22;228;48.922;12.198;2023-07-02T10:03:58;23.80;47.90
484;DHT22;228;48.922;12.198;2023-07-02T10:06:24;23.50;46.80
484;DHT22;228;48.922;12.198;2023-07-02T10:08:57;23.60;46.50
484;DHT22;228;48.922;12.198;2023-07-02T10:11:33;23.60;47.00
484;DHT22;228;48.922;12.198;2023-07-02T10:14:02;24.20;46.60
484;DHT22;228;48.922;12.198;2023-07-02T10:16:28;25.00;45.20
484;DHT22;228;48.922;12.198;2023-07-02T10:19:13;25.00;44.10
484;DHT22;228;48.922;12.198;2023-07-02T10:21:39;24.80;43.70
484;DHT22;228;48.922;12.198;2023-07-02T10:24:12;24.50;43.70
484;DHT22;228;48.922;12.198;2023-07-02T10:26:39;24.40;44.20
484;DHT22;228;48.922;12.198;2023-07-02T10:29:21;24.30;43.80
484;DHT22;228;48.922;12.198;2023-07-02T10:31:49;24.20;43.00
484;DHT22;228;48.922;12.198;2023-07-02T10:34:16;24.40;43.10
484;DHT22;228;48.922;12.198;2023-07-02T10:36:56;24.90;42.40
484;DHT22;228;48.922;12.198;2023-07-02T10:39:22;25.00;41.90
484;DHT22;228;48.922;12.198;2023-07-02T10:41:48;25.00;40.50
484;DHT22;228;48.922;12.198;2023-07-02T10:44:15;25.20;40.20
484;DHT22;228;48.922;12.198;2023-07-02T10:46:48;25.40;41.00
484;DHT22;228;48.922;12.198;2023-07-02T10:49:17;24.90;39.90
484;DHT22;228;48.922;12.198;2023-07-02T10:51:43;24.70;41.50
484;DHT22;228;48.922;12.198;2023-07-02T10:54:09;24.60;40.70
484;DHT22;228;48.922;12.198;2023-07-02T10:56:35;24.30;40.70
484;DHT22;228;48.922;12.198;2023-07-02T10:59:01;24.40;42.10
484;DHT22;228;48.922;12.198;2023-07-02T11:01:30;24.60;41.70
484;DHT22;228;48.922;12.198;2023-07-02T11:04:02;25.00;40.60
484;DHT22;228;48.922;12.198;2023-07-02T11:06:31;25.10;39.90
484;DHT22;228;48.922;12.198;2023-07-02T11:09:00;24.70;41.30
484;DHT22;228;48.922;12.198;2023-07-02T11:11:26;24.60;40.70
484;DHT22;228;48.922;12.198;2023-07-02T11:13:53;25.00;40.90
484;DHT22;228;48.922;12.198;2023-07-02T11:16:27;25.30;40.20
484;DHT22;228;48.922;12.198;2023-07-02T11:19:06;26.10;39.10
484;DHT22;228;48.922;12.198;2023-07-02T11:21:34;26.10;36.90
484;DHT22;228;48.922;12.198;2023-07-02T11:24:08;25.60;38.00
484;DHT22;228;48.922;12.198;2023-07-02T11:26:38;25.80;38.20
484;DHT22;228;48.922;12.198;2023-07-02T11:29:10;26.20;37.40
484;DHT22;228;48.922;12.198;2023-07-02T11:31:36;26.40;36.40
484;DHT22;228;48.922;12.198;2023-07-02T11:34:14;26.10;37.00
484;DHT22;228;48.922;12.198;2023-07-02T11:36:41;26.20;36.80
484;DHT22;228;48.922;12.198;2023-07-02T11:39:07;26.20;36.80
484;DHT22;228;48.922;12.198;2023-07-02T11:41:52;26.40;36.40
484;DHT22;228;48.922;12.198;2023-07-02T11:44:18;26.10;36.30
484;DHT22;228;48.922;12.198;2023-07-02T11:46:45;26.10;36.40
484;DHT22;228;48.922;12.198;2023-07-02T11:49:12;25.30;37.70
484;DHT22;228;48.922;12.198;2023-07-02T11:51:39;25.70;38.30
484;DHT22;228;48.922;12.198;2023-07-02T11:54:06;28.40;33.60
484;DHT22;228;48.922;12.198;2023-07-02T11:56:32;28.40;33.80
484;DHT22;228;48.922;12.198;2023-07-02T11:58:59;29.20;30.40
484;DHT22;228;48.922;12.198;2023-07-02T12:01:26;28.40;31.00
484;DHT22;228;48.922;12.198;2023-07-02T12:03:52;27.80;31.90
484;DHT22;228;48.922;12.198;2023-07-02T12:06:18;29.20;30.70
484;DHT22;228;48.922;12.198;2023-07-02T12:08:44;29.60;30.00
484;DHT22;228;48.922;12.198;2023-07-02T12:11:11;29.70;30.00
484;DHT22;228;48.922;12.198;2023-07-02T12:13:37;29.70;28.90
484;DHT22;228;48.922;12.198;2023-07-02T12:16:03;27.90;31.20
484;DHT22;228;48.922;12.198;2023-07-02T12:18:29;27.00;32.50
484;DHT22;228;48.922;12.198;2023-07-02T12:20:55;26.40;34.40
484;DHT22;228;48.922;12.198;2023-07-02T12:23:21;26.00;35.40
484;DHT22;228;48.922;12.198;2023-07-02T12:25:47;26.00;35.90
484;DHT22;228;48.922;12.198;2023-07-02T12:28:14;26.50;34.00
484;DHT22;228;48.922;12.198;2023-07-02T12:30:40;27.60;34.30
484;DHT22;228;48.922;12.198;2023-07-02T12:33:06;29.10;31.00
484;DHT22;228;48.922;12.198;2023-07-02T12:37:59;30.60;39.90
484;DHT22;228;48.922;12.198;2023-07-02T12:40:25;33.00;36.80
484;DHT22;228;48.922;12.198;2023-07-02T12:42:51;30.40;37.60
484;DHT22;228;48.922;12.198;2023-07-02T12:45:17;30.30;44.30
484;DHT22;228;48.922;12.198;2023-07-02T12:47:44;29.20;39.80
484;DHT22;228;48.922;12.198;2023-07-02T12:50:10;29.40;42.30
484;DHT22;228;48.922;12.198;2023-07-02T12:52:37;28.10;44.00
484;DHT22;228;48.922;12.198;2023-07-02T12:55:04;31.20;27.60
484;DHT22;228;48.922;12.198;2023-07-02T12:57:30;31.40;27.70
484;DHT22;228;48.922;12.198;2023-07-02T12:59:56;31.90;26.80
484;DHT22;228;48.922;12.198;2023-07-02T13:02:23;33.50;25.50
484;DHT22;228;48.922;12.198;2023-07-02T13:04:50;35.50;23.40
484;DHT22;228;48.922;12.198;2023-07-02T13:07:16;35.50;22.60
484;DHT22;228;48.922;12.198;2023-07-02T13:09:42;35.40;22.60
484;DHT22;228;48.922;12.198;2023-07-02T13:12:10;34.80;23.20
484;DHT22;228;48.922;12.198;2023-07-02T13:14:37;33.40;24.40
484;DHT22;228;48.922;12.198;2023-07-02T13:17:03;31.70;26.30
484;DHT22;228;48.922;12.198;2023-07-02T13:19:31;31.20;26.80
484;DHT22;228;48.922;12.198;2023-07-02T13:21:58;31.20;26.70
484;DHT22;228;48.922;12.198;2023-07-02T13:24:24;32.10;25.80
484;DHT22;228;48.922;12.198;2023-07-02T13:26:50;32.80;25.30
484;DHT22;228;48.922;12.198;2023-07-02T13:29:16;32.50;24.90
484;DHT22;228;48.922;12.198;2023-07-02T13:31:42;32.40;25.90
484;DHT22;228;48.922;12.198;2023-07-02T13:34:08;33.70;24.60
484;DHT22;228;48.922;12.198;2023-07-02T13:36:34;33.00;24.80
484;DHT22;228;48.922;12.198;2023-07-02T13:41:28;33.20;24.60
484;DHT22;228;48.922;12.198;2023-07-02T13:43:56;34.20;24.00
484;DHT22;228;48.922;12.198;2023-07-02T13:46:22;35.00;23.60
484;DHT22;228;48.922;12.198;2023-07-02T13:48:48;35.10;22.70
484;DHT22;228;48.922;12.198;2023-07-02T13:51:14;34.20;22.90
484;DHT22;228;48.922;12.198;2023-07-02T13:53:40;33.10;24.10
484;DHT22;228;48.922;12.198;2023-07-02T13:56:06;32.30;25.20
484;DHT22;228;48.922;12.198;2023-07-02T13:59:08;30.70;25.90
484;DHT22;228;48.922;12.198;2023-07-02T14:01:34;30.90;26.60
484;DHT22;228;48.922;12.198;2023-07-02T14:04:01;32.90;24.60
484;DHT22;228;48.922;12.198;2023-07-02T14:06:28;34.60;23.40
484;DHT22;228;48.922;12.198;2023-07-02T14:08:54;34.90;23.00
484;DHT22;228;48.922;12.198;2023-07-02T14:11:21;35.30;22.50
484;DHT22;228;48.922;12.198;2023-07-02T14:13:48;35.50;22.30
484;DHT22;228;48.922;12.198;2023-07-02T14:16:15;36.10;21.40
484;DHT22;228;48.922;12.198;2023-07-02T14:18:41;34.40;22.70
484;DHT22;228;48.922;12.198;2023-07-02T14:21:07;34.10;23.30
484;DHT22;228;48.922;12.198;2023-07-02T14:23:33;34.10;23.10
484;DHT22;228;48.922;12.198;2023-07-02T14:25:59;34.40;23.00
484;DHT22;228;48.922;12.198;2023-07-02T14:28:25;35.30;22.70
484;DHT22;228;48.922;12.198;2023-07-02T14:31:02;35.40;22.70
484;DHT22;228;48.922;12.198;2023-07-02T14:33:31;34.40;23.30
484;DHT22;228;48.922;12.198;2023-07-02T14:35:59;34.20;23.20
484;DHT22;228;48.922;12.198;2023-07-02T14:38:26;34.40;22.70
484;DHT22;228;48.922;12.198;2023-07-02T14:40:55;33.60;23.90
484;DHT22;228;48.922;12.198;2023-07-02T14:43:23;33.10;24.10
484;DHT22;228;48.922;12.198;2023-07-02T14:45:53;33.40;24.10
484;DHT22;228;48.922;12.198;2023-07-02T14:48:19;31.80;24.70
484;DHT22;228;48.922;12.198;2023-07-02T14:50:51;32.00;25.20
484;DHT22;228;48.922;12.198;2023-07-02T14:53:19;33.00;24.70
484;DHT22;228;48.922;12.198;2023-07-02T14:55:46;31.90;25.40
484;DHT22;228;48.922;12.198;2023-07-02T14:58:14;31.30;26.80
484;DHT22;228;48.922;12.198;2023-07-02T15:00:49;30.70;25.50
484;DHT22;228;48.922;12.198;2023-07-02T15:03:17;30.20;27.90
484;DHT22;228;48.922;12.198;2023-07-02T15:05:46;30.30;27.30
484;DHT22;228;48.922;12.198;2023-07-02T15:08:13;31.30;25.90
484;DHT22;228;48.922;12.198;2023-07-02T15:10:46;32.90;24.70
484;DHT22;228;48.922;12.198;2023-07-02T15:13:14;32.90;23.90
484;DHT22;228;48.922;12.198;2023-07-02T15:15:42;31.60;25.90
484;DHT22;228;48.922;12.198;2023-07-02T15:18:09;32.50;25.20
484;DHT22;228;48.922;12.198;2023-07-02T15:20:36;34.10;23.60
484;DHT22;228;48.922;12.198;2023-07-02T15:23:02;36.60;22.40
484;DHT22;228;48.922;12.198;2023-07-02T15:25:30;36.50;20.90
484;DHT22;228;48.922;12.198;2023-07-02T15:27:57;34.20;22.90
484;DHT22;228;48.922;12.198;2023-07-02T15:30:23;32.40;24.40
484;DHT22;228;48.922;12.198;2023-07-02T15:32:49;30.70;25.80
484;DHT22;228;48.922;12.198;2023-07-02T15:35:15;31.20;26.00
484;DHT22;228;48.922;12.198;2023-07-02T15:37:41;32.70;25.00
484;DHT22;228;48.922;12.198;2023-07-02T15:40:08;34.40;23.30
484;DHT22;228;48.922;12.198;2023-07-02T15:42:35;35.40;22.70
484;DHT22;228;48.922;12.198;2023-07-02T15:45:02;35.40;23.30
484;DHT22;228;48.922;12.198;2023-07-02T15:47:30;35.80;22.10
484;DHT22;228;48.922;12.198;2023-07-02T15:49:56;36.50;22.20
484;DHT22;228;48.922;12.198;2023-07-02T15:52:22;33.70;23.30
484;DHT22;228;48.922;12.198;2023-07-02T15:54:48;31.20;25.90
484;DHT22;228;48.922;12.198;2023-07-02T15:57:14;31.20;26.10
484;DHT22;228;48.922;12.198;2023-07-02T15:59:40;32.10;25.00
484;DHT22;228;48.922;12.198;2023-07-02T16:02:07;31.70;25.00
484;DHT22;228;48.922;12.198;2023-07-02T16:04:34;31.00;26.00
484;DHT22;228;48.922;12.198;2023-07-02T16:07:00;31.50;25.40
484;DHT22;228;48.922;12.198;2023-07-02T16:09:26;32.70;25.20
484;DHT22;228;48.922;12.198;2023-07-02T16:11:52;35.70;22.70
484;DHT22;228;48.922;12.198;2023-07-02T16:14:18;36.40;22.40
484;DHT22;228;48.922;12.198;2023-07-02T16:16:46;38.20;20.80
484;DHT22;228;48.922;12.198;2023-07-02T16:19:14;36.80;21.10
484;DHT22;228;48.922;12.198;2023-07-02T16:21:41;36.10;21.50
484;DHT22;228;48.922;12.198;2023-07-02T16:24:18;36.40;22.70
484;DHT22;228;48.922;12.198;2023-07-02T16:26:50;36.20;21.90
484;DHT22;228;48.922;12.198;2023-07-02T16:29:17;34.60;22.90
484;DHT22;228;48.922;12.198;2023-07-02T16:31:48;33.10;24.30
484;DHT22;228;48.922;12.198;2023-07-02T16:34:17;32.80;24.20
484;DHT22;228;48.922;12.198;2023-07-02T16:36:44;32.70;24.50
484;DHT22;228;48.922;12.198;2023-07-02T16:39:14;32.10;25.80
484;DHT22;228;48.922;12.198;2023-07-02T16:41:41;31.50;26.10
484;DHT22;228;48.922;12.198;2023-07-02T16:44:25;31.10;27.00
484;DHT22;228;48.922;12.198;2023-07-02T16:46:54;31.20;26.80
484;DHT22;228;48.922;12.198;2023-07-02T16:49:23;30.20;27.90
484;DHT22;228;48.922;12.198;2023-07-02T16:51:51;30.10;28.40
484;DHT22;228;48.922;12.198;2023-07-02T16:54:18;30.10;27.90
484;DHT22;228;48.922;12.198;2023-07-02T16:59:26;29.50;29.30
484;DHT22;228;48.922;12.198;2023-07-02T17:01:56;29.60;28.90
484;DHT22;228;48.922;12.198;2023-07-02T17:04:24;29.10;28.90
484;DHT22;228;48.922;12.198;2023-07-02T17:06:55;28.60;29.60
484;DHT22;228;48.922;12.198;2023-07-02T17:09:26;28.10;30.70
484;DHT22;228;48.922;12.198;2023-07-02T17:12:03;27.90;30.20
484;DHT22;228;48.922;12.198;2023-07-02T17:14:35;27.90;31.50
484;DHT22;228;48.922;12.198;2023-07-02T17:17:05;27.90;32.20
484;DHT22;228;48.922;12.198;2023-07-02T17:19:43;28.00;31.30
484;DHT22;228;48.922;12.198;2023-07-02T17:22:13;28.00;31.30
484;DHT22;228;48.922;12.198;2023-07-02T17:24:43;27.60;31.90
484;DHT22;228;48.922;12.198;2023-07-02T17:27:12;27.30;32.50
484;DHT22;228;48.922;12.198;2023-07-02T17:29:40;27.20;32.70
484;DHT22;228;48.922;12.198;2023-07-02T17:32:09;27.30;33.10
484;DHT22;228;48.922;12.198;2023-07-02T17:34:36;27.10;32.80
484;DHT22;228;48.922;12.198;2023-07-02T17:37:06;26.90;33.80
484;DHT22;228;48.922;12.198;2023-07-02T17:39:35;26.80;34.20
484;DHT22;228;48.922;12.198;2023-07-02T17:42:02;26.60;33.70
484;DHT22;228;48.922;12.198;2023-07-02T17:44:40;26.30;34.20
484;DHT22;228;48.922;12.198;2023-07-02T17:47:09;26.00;34.50
484;DHT22;228;48.922;12.198;2023-07-02T17:49:39;26.10;34.80
484;DHT22;228;48.922;12.198;2023-07-02T17:52:10;26.10;34.70
484;DHT22;228;48.922;12.198;2023-07-02T17:54:39;26.30;34.90
484;DHT22;228;48.922;12.198;2023-07-02T17:57:12;26.10;34.20
484;DHT22;228;48.922;12.198;2023-07-02T17:59:39;26.00;34.80
484;DHT22;228;48.922;12.198;2023-07-02T18:02:07;25.70;34.90
484;DHT22;228;48.922;12.198;2023-07-02T18:04:34;25.80;35.30
484;DHT22;228;48.922;12.198;2023-07-02T18:07:10;25.80;34.80
484;DHT22;228;48.922;12.198;2023-07-02T18:09:44;25.80;34.90
484;DHT22;228;48.922;12.198;2023-07-02T18:12:14;25.70;34.80
484;DHT22;228;48.922;12.198;2023-07-02T18:14:42;25.60;35.10
484;DHT22;228;48.922;12.198;2023-07-02T18:17:09;25.50;35.50
484;DHT22;228;48.922;12.198;2023-07-02T18:19:35;25.50;36.30
484;DHT22;228;48.922;12.198;2023-07-02T18:22:02;25.40;36.80
484;DHT22;228;48.922;12.198;2023-07-02T18:24:29;25.30;36.70
484;DHT22;228;48.922;12.198;2023-07-02T18:26:57;25.30;37.30
484;DHT22;228;48.922;12.198;2023-07-02T18:29:24;25.20;37.10
484;DHT22;228;48.922;12.198;2023-07-02T18:31:50;25.30;37.70
484;DHT22;228;48.922;12.198;2023-07-02T18:34:16;25.00;37.10
484;DHT22;228;48.922;12.198;2023-07-02T18:36:43;24.70;37.80
484;DHT22;228;48.922;12.198;2023-07-02T18:39:18;25.00;38.20
484;DHT22;228;48.922;12.198;2023-07-02T18:41:47;24.90;38.20
484;DHT22;228;48.922;12.198;2023-07-02T18:44:13;24.70;38.70
484;DHT22;228;48.922;12.198;2023-07-02T18:46:40;24.60;39.40
484;DHT22;228;48.922;12.198;2023-07-02T18:49:06;24.40;38.60
484;DHT22;228;48.922;12.198;2023-07-02T18:51:33;24.60;38.60
484;DHT22;228;48.922;12.198;2023-07-02T18:54:00;24.80;38.00
484;DHT22;228;48.922;12.198;2023-07-02T18:56:26;24.90;37.80
484;DHT22;228;48.922;12.198;2023-07-02T18:58:53;24.80;38.10
484;DHT22;228;48.922;12.198;2023-07-02T19:01:19;24.70;38.40
484;DHT22;228;48.922;12.198;2023-07-02T19:03:45;24.50;38.70
484;DHT22;228;48.922;12.198;2023-07-02T19:06:11;24.50;39.10
484;DHT22;228;48.922;12.198;2023-07-02T19:08:38;24.60;38.60
484;DHT22;228;48.922;12.198;2023-07-02T19:11:06;24.60;39.20
484;DHT22;228;48.922;12.198;2023-07-02T19:13:34;24.60;38.90
484;DHT22;228;48.922;12.198;2023-07-02T19:16:00;24.70;39.80
484;DHT22;228;48.922;12.198;2023-07-02T19:18:27;24.60;39.10
484;DHT22;228;48.922;12.198;2023-07-02T19:20:56;24.60;39.90
484;DHT22;228;48.922;12.198;2023-07-02T19:23:23;24.60;39.40
484;DHT22;228;48.922;12.198;2023-07-02T19:25:52;24.50;39.60
484;DHT22;228;48.922;12.198;2023-07-02T19:28:19;24.30;39.20
484;DHT22;228;48.922;12.198;2023-07-02T19:30:46;24.20;40.90
484;DHT22;228;48.922;12.198;2023-07-02T19:33:12;24.10;40.50
484;DHT22;228;48.922;12.198;2023-07-02T19:35:38;24.00;41.80
484;DHT22;228;48.922;12.198;2023-07-02T19:38:05;23.90;41.70
484;DHT22;228;48.922;12.198;2023-07-02T19:40:31;23.90;41.80
484;DHT22;228;48.922;12.198;2023-07-02T19:42:57;23.70;42.00
484;DHT22;228;48.922;12.198;2023-07-02T19:45:24;23.70;42.20
484;DHT22;228;48.922;12.198;2023-07-02T19:47:50;23.60;42.10
484;DHT22;228;48.922;12.198;2023-07-02T19:50:17;23.50;42.30
484;DHT22;228;48.922;12.198;2023-07-02T19:52:43;23.40;42.40
484;DHT22;228;48.922;12.198;2023-07-02T19:55:11;23.30;43.30
484;DHT22;228;48.922;12.198;2023-07-02T19:57:39;23.20;42.80
484;DHT22;228;48.922;12.198;2023-07-02T20:00:05;23.00;42.80
484;DHT22;228;48.922;12.198;2023-07-02T20:02:37;23.00;43.20
484;DHT22;228;48.922;12.198;2023-07-02T20:05:06;22.90;42.90
484;DHT22;228;48.922;12.198;2023-07-02T20:07:32;23.00;42.90
484;DHT22;228;48.922;12.198;2023-07-02T20:09:58;22.90;42.70
484;DHT22;228;48.922;12.198;2023-07-02T20:12:24;22.90;43.50
484;DHT22;228;48.922;12.198;2023-07-02T20:14:55;22.80;43.50
484;DHT22;228;48.922;12.198;2023-07-02T20:17:22;22.60;44.00
484;DHT22;228;48.922;12.198;2023-07-02T20:19:50;22.50;44.50
484;DHT22;228;48.922;12.198;2023-07-02T20:22:18;22.40;45.00
484;DHT22;228;48.922;12.198;2023-07-02T20:24:45;22.30;45.20
484;DHT22;228;48.922;12.198;2023-07-02T20:27:11;22.10;44.50
484;DHT22;228;48.922;12.198;2023-07-02T20:29:39;22.00;44.70
484;DHT22;228;48.922;12.198;2023-07-02T20:32:06;21.90;46.20
484;DHT22;228;48.922;12.198;2023-07-02T20:34:33;21.90;46.30
484;DHT22;228;48.922;12.198;2023-07-02T20:37:00;21.60;46.90